createdAt,value
2022-11-29T00:00:23.861Z,101112.25
2022-11-29T00:03:27.723Z,101104.59
2022-11-29T00:06:33.066Z,101112.25
2022-11-29T00:09:35.780Z,101104.53
2022-11-29T00:12:38.386Z,101098.53
2022-11-29T00:15:41.431Z,101101.09
2022-11-29T00:18:43.889Z,101101.13
2022-11-29T00:21:46.635Z,101091.75
2022-11-29T00:24:49.175Z,101086.59
2022-11-29T00:27:52.011Z,101090.84
2022-11-29T00:30:54.943Z,101092.53
2022-11-29T00:34:02.272Z,101088.28
2022-11-29T00:37:04.924Z,101077.22
2022-11-29T00:40:08.589Z,101078.06
2022-11-29T00:43:10.997Z,101073.78
2022-11-29T00:46:13.718Z,101081.47
2022-11-29T00:49:16.431Z,101075.50
2022-11-29T00:52:19.259Z,101078.00
2022-11-29T00:55:21.700Z,101073.75
2022-11-29T00:58:24.573Z,101071.19
2022-11-29T01:01:27.302Z,101067.78
2022-11-29T01:04:30.194Z,101065.22
2022-11-29T01:07:32.613Z,101066.06
2022-11-29T01:10:35.390Z,101063.56
2022-11-29T01:13:38.054Z,101060.97
2022-11-29T01:16:40.940Z,101063.50
2022-11-29T01:19:49.310Z,101058.41
2022-11-29T01:22:53.467Z,101067.78
2022-11-29T01:26:17.698Z,101062.66
2022-11-29T01:29:20.693Z,101066.09
2022-11-29T01:32:23.139Z,101057.53
2022-11-29T01:35:25.872Z,101059.25
2022-11-29T01:38:28.534Z,101060.13
2022-11-29T01:41:33.771Z,101047.31
2022-11-29T01:44:36.158Z,101053.28
2022-11-29T01:47:43.778Z,101055.84
2022-11-29T01:50:46.374Z,101063.50
2022-11-29T01:53:49.255Z,101060.09
2022-11-29T01:56:52.923Z,101060.06
2022-11-29T02:00:02.296Z,101065.13
2022-11-29T02:03:17.568Z,101063.41
2022-11-29T02:06:20.782Z,101054.91
2022-11-29T02:09:23.667Z,101056.63
2022-11-29T02:12:43.283Z,101062.59
2022-11-29T02:15:54.133Z,101055.78
2022-11-29T02:19:53.420Z,101062.66
2022-11-29T02:23:04.777Z,101060.91
2022-11-29T02:26:41.412Z,101068.56
2022-11-29T02:30:05.800Z,101067.69
2022-11-29T02:33:31.993Z,101076.22
2022-11-29T02:36:42.572Z,101079.59
2022-11-29T02:39:51.227Z,101074.50
2022-11-29T02:42:57.159Z,101070.22
2022-11-29T02:46:18.374Z,101071.94
2022-11-29T02:49:45.416Z,101072.03
2022-11-29T02:52:53.299Z,101076.25
2022-11-29T02:56:26.480Z,101076.25
2022-11-29T02:59:52.863Z,101067.66
2022-11-29T03:03:10.300Z,101076.19
2022-11-29T03:06:32.211Z,101076.12
2022-11-29T03:10:09.336Z,101078.69
2022-11-29T03:13:47.523Z,101077.84
2022-11-29T03:17:08.615Z,101077.91
2022-11-29T03:20:20.029Z,101082.97
2022-11-29T03:23:59.779Z,101080.44
2022-11-29T03:27:09.419Z,101078.72
2022-11-29T03:30:14.736Z,101090.66
2022-11-29T03:33:38.015Z,101081.28
2022-11-29T03:36:56.478Z,101079.59
2022-11-29T03:40:08.069Z,101075.31
2022-11-29T03:43:17.054Z,101088.94
2022-11-29T03:46:42.400Z,101087.16
2022-11-29T03:50:05.202Z,101091.41
2022-11-29T03:53:25.990Z,101092.28
2022-11-29T03:56:37.045Z,101095.72
2022-11-29T04:00:02.292Z,101094.81
2022-11-29T04:03:33.573Z,101105.06
2022-11-29T04:07:13.356Z,101100.00
2022-11-29T04:10:43.341Z,101101.66
2022-11-29T04:14:27.719Z,101105.06
2022-11-29T04:18:14.971Z,101113.56
2022-11-29T04:21:46.324Z,101107.66
2022-11-29T04:25:10.684Z,101112.75
2022-11-29T04:28:40.963Z,101116.97
2022-11-29T04:31:58.305Z,101112.59
2022-11-29T04:35:32.858Z,101116.88
2022-11-29T04:38:35.278Z,101106.69
2022-11-29T04:41:48.610Z,101115.22
2022-11-29T04:45:06.032Z,101113.50
2022-11-29T04:48:23.816Z,101110.06
2022-11-29T04:51:35.297Z,101110.88
2022-11-29T04:54:48.716Z,101116.03
2022-11-29T04:58:09.744Z,101122.03
2022-11-29T05:01:21.725Z,101124.66
2022-11-29T05:05:08.043Z,101130.53
2022-11-29T05:08:22.645Z,101127.16
2022-11-29T05:12:10.555Z,101131.41
2022-11-29T05:15:15.948Z,101139.09
2022-11-29T05:18:30.364Z,101140.75
2022-11-29T05:21:38.700Z,101140.78
2022-11-29T05:24:59.980Z,101145.84
2022-11-29T05:28:10.412Z,101139.91
2022-11-29T05:31:31.895Z,101149.28
2022-11-29T05:34:54.559Z,101147.50
2022-11-29T05:38:20.425Z,101146.56
2022-11-29T05:41:44.963Z,101147.47
2022-11-29T05:45:08.517Z,101151.72
2022-11-29T05:48:18.854Z,101152.53
2022-11-29T05:51:25.428Z,101147.56
2022-11-29T05:54:42.452Z,101148.34
2022-11-29T05:58:27.078Z,101149.13
2022-11-29T06:01:41.869Z,101149.19
2022-11-29T06:05:09.629Z,101153.44
2022-11-29T06:08:36.518Z,101158.53
2022-11-29T06:11:44.960Z,101164.50
2022-11-29T06:15:16.457Z,101164.44
2022-11-29T06:18:46.751Z,101170.44
2022-11-29T06:22:01.546Z,101170.44
2022-11-29T06:25:36.130Z,101175.47
2022-11-29T06:28:46.330Z,101175.53
2022-11-29T06:32:31.906Z,101164.44
2022-11-29T06:35:34.988Z,101174.72
2022-11-29T06:38:38.107Z,101178.12
2022-11-29T06:41:40.620Z,101179.03
2022-11-29T06:44:44.137Z,101185.03
2022-11-29T06:48:00.155Z,101190.19
2022-11-29T06:51:28.978Z,101185.03
2022-11-29T06:54:48.461Z,101181.66
2022-11-29T06:58:06.017Z,101184.25
2022-11-29T07:01:18.930Z,101185.84
2022-11-29T07:04:34.213Z,101179.94
2022-11-29T07:07:37.033Z,101185.94
2022-11-29T07:10:41.539Z,101188.53
2022-11-29T07:13:44.254Z,101192.00
2022-11-29T07:17:07.201Z,101195.50
2022-11-29T07:20:18.542Z,101186.91
2022-11-29T07:23:42.715Z,101194.56
2022-11-29T07:27:01.701Z,101191.16
2022-11-29T07:30:19.942Z,101189.53
2022-11-29T07:33:47.956Z,101193.84
2022-11-29T07:36:53.772Z,101193.03
2022-11-29T07:39:59.338Z,101192.19
2022-11-29T07:43:02.205Z,101198.09
2022-11-29T07:46:04.691Z,101199.00
2022-11-29T07:49:10.364Z,101204.16
2022-11-29T07:52:14.777Z,101205.91
2022-11-29T07:55:20.440Z,101200.78
2022-11-29T07:58:23.937Z,101206.59
2022-11-29T08:01:26.844Z,101208.38
2022-11-29T08:04:30.011Z,101210.91
2022-11-29T08:07:35.705Z,101210.84
2022-11-29T08:10:38.757Z,101210.03
2022-11-29T08:13:41.444Z,101213.53
2022-11-29T08:16:44.218Z,101209.25
2022-11-29T08:19:46.687Z,101199.97
2022-11-29T08:22:58.373Z,101201.72
2022-11-29T08:26:02.262Z,101199.22
2022-11-29T08:29:04.937Z,101200.03
2022-11-29T08:32:09.038Z,101202.66
2022-11-29T08:35:11.934Z,101200.13
2022-11-29T08:38:14.393Z,101202.69
2022-11-29T08:41:17.613Z,101206.84
2022-11-29T08:44:20.199Z,101212.78
2022-11-29T08:47:38.168Z,101211.09
2022-11-29T08:50:40.593Z,101218.78
2022-11-29T08:53:43.529Z,101211.06
2022-11-29T09:00:09.664Z,101203.37
2022-11-29T09:03:31.446Z,101210.28
2022-11-29T09:06:41.763Z,101211.12
2022-11-29T09:09:44.438Z,101215.44
2022-11-29T09:12:48.351Z,101211.09
2022-11-29T09:15:50.877Z,101204.34
2022-11-29T09:18:55.945Z,101209.47
2022-11-29T09:21:58.529Z,101204.25
2022-11-29T09:25:04.409Z,101205.22
2022-11-29T09:28:07.457Z,101204.31
2022-11-29T09:31:13.286Z,101198.34
2022-11-29T09:34:16.844Z,101204.41
2022-11-29T09:37:19.563Z,101185.59
2022-11-29T09:40:30.908Z,101192.47
2022-11-29T09:43:48.729Z,101206.09
2022-11-29T09:47:09.006Z,101197.62
2022-11-29T09:50:36.912Z,101194.19
2022-11-29T09:54:18.102Z,101191.66
2022-11-29T09:57:26.333Z,101190.03
2022-11-29T10:00:30.665Z,101189.13
2022-11-29T10:03:44.541Z,101189.19
2022-11-29T10:07:01.989Z,101182.37
2022-11-29T10:10:20.563Z,101179.84
2022-11-29T10:13:29.673Z,101177.28
2022-11-29T10:16:44.650Z,101173.03
2022-11-29T10:19:52.984Z,101161.91
2022-11-29T10:23:15.928Z,101162.69
2022-11-29T10:26:20.306Z,101160.19
2022-11-29T10:29:23.695Z,101154.19
2022-11-29T10:32:30.922Z,101162.78
2022-11-29T10:35:33.695Z,101167.00
2022-11-29T10:38:36.609Z,101159.37
2022-11-29T10:41:39.343Z,101160.25
2022-11-29T10:44:42.053Z,101158.53
2022-11-29T10:47:47.155Z,101149.97
2022-11-29T10:50:52.001Z,101151.69
2022-11-29T10:53:56.319Z,101153.41
2022-11-29T10:57:01.500Z,101148.25
2022-11-29T11:00:10.691Z,101144.00
2022-11-29T11:03:24.533Z,101148.25
2022-11-29T11:06:43.716Z,101141.41
2022-11-29T11:09:53.380Z,101137.12
2022-11-29T11:13:19.055Z,101134.56
2022-11-29T11:16:25.789Z,101137.16
2022-11-29T11:19:32.016Z,101141.44
2022-11-29T11:22:39.313Z,101143.97
2022-11-29T11:25:42.137Z,101144.84
2022-11-29T11:29:01.666Z,101142.28
2022-11-29T11:32:05.275Z,101134.63
2022-11-29T11:35:22.753Z,101134.59
2022-11-29T11:38:25.744Z,101144.88
2022-11-29T11:41:54.202Z,101144.84
2022-11-29T11:44:56.987Z,101139.72
2022-11-29T11:48:11.970Z,101145.69
2022-11-29T11:51:25.758Z,101142.28
2022-11-29T11:54:29.571Z,101135.44
2022-11-29T11:57:32.509Z,101144.84
2022-11-29T12:01:13.426Z,101142.28
2022-11-29T12:04:24.981Z,101138.87
2022-11-29T12:08:06.168Z,101139.72
2022-11-29T12:11:07.197Z,101131.19
2022-11-29T12:14:21.624Z,101135.47
2022-11-29T12:17:46.196Z,101137.16
2022-11-29T12:20:59.247Z,101133.72
2022-11-29T12:24:10.556Z,101131.13
2022-11-29T12:27:15.573Z,101131.16
2022-11-29T12:30:19.851Z,101131.13
2022-11-29T12:33:49.979Z,101134.56
2022-11-29T12:37:11.631Z,101121.75
2022-11-29T12:40:58.646Z,101125.19
2022-11-29T12:44:10.223Z,101124.31
2022-11-29T12:47:37.913Z,101127.78
2022-11-29T12:51:06.083Z,101123.50
2022-11-29T12:54:16.019Z,101120.94
2022-11-29T12:57:21.635Z,101123.50
2022-11-29T13:00:28.868Z,101112.38
2022-11-29T13:03:59.387Z,101125.22
2022-11-29T13:07:13.753Z,101121.81
2022-11-29T13:10:48.346Z,101112.38
2022-11-29T13:14:34.611Z,101122.63
2022-11-29T13:17:32.145Z,101122.66
2022-11-29T13:21:24.135Z,101122.63
2022-11-29T13:24:42.927Z,101109.81
2022-11-29T13:27:58.470Z,101124.34
2022-11-29T13:31:18.289Z,101121.75
2022-11-29T13:34:42.752Z,101117.50
2022-11-29T13:37:55.465Z,101110.66
2022-11-29T13:41:30.898Z,101109.81
2022-11-29T13:44:44.564Z,101111.53
2022-11-29T13:48:10.877Z,101117.50
2022-11-29T13:51:28.328Z,101114.09
2022-11-29T13:54:33.694Z,101117.50
2022-11-29T14:01:21.570Z,101120.09
2022-11-29T14:04:41.465Z,101119.25
2022-11-29T14:08:21.467Z,101120.91
2022-11-29T14:11:28.947Z,101122.66
2022-11-29T14:14:59.261Z,101114.09
2022-11-29T14:18:08.245Z,101120.94
2022-11-29T14:21:11.369Z,101122.63
2022-11-29T14:24:32.536Z,101124.38
2022-11-29T14:27:34.894Z,101116.66
2022-11-29T14:30:43.755Z,101119.22
2022-11-29T14:33:46.459Z,101107.25
2022-11-29T14:36:59.005Z,101115.81
2022-11-29T14:40:12.387Z,101121.78
2022-11-29T14:43:36.676Z,101114.97
2022-11-29T14:46:39.240Z,101115.81
2022-11-29T14:49:45.409Z,101119.22
2022-11-29T14:52:52.360Z,101118.37
2022-11-29T14:56:47.463Z,101114.09
2022-11-29T14:59:54.303Z,101112.41
2022-11-29T15:03:01.256Z,101110.66
2022-11-29T15:06:03.698Z,101111.53
2022-11-29T15:09:17.185Z,101112.38
2022-11-29T15:12:28.826Z,101114.94
2022-11-29T15:15:50.259Z,101118.34
2022-11-29T15:19:30.608Z,101111.53
2022-11-29T15:23:01.684Z,101114.94
2022-11-29T15:26:04.171Z,101113.22
2022-11-29T15:29:19.203Z,101118.37
2022-11-29T15:32:25.980Z,101119.22
2022-11-29T15:35:29.668Z,101115.81
2022-11-29T15:38:43.030Z,101115.81
2022-11-29T15:41:45.818Z,101114.94
2022-11-29T15:44:49.105Z,101119.19
2022-11-29T15:47:52.750Z,101115.78
2022-11-29T15:51:22.130Z,101120.06
2022-11-29T15:54:29.022Z,101122.63
2022-11-29T15:57:34.254Z,101120.09
2022-11-29T16:00:37.470Z,101120.09
2022-11-29T16:03:43.515Z,101123.50
2022-11-29T16:06:47.486Z,101112.41
2022-11-29T16:09:57.174Z,101120.06
2022-11-29T16:13:06.297Z,101118.37
2022-11-29T16:16:14.036Z,101126.06
2022-11-29T16:19:30.150Z,101132.00
2022-11-29T16:22:32.904Z,101125.19
2022-11-29T16:25:50.743Z,101119.22
2022-11-29T16:28:57.777Z,101126.03
2022-11-29T16:32:11.508Z,101123.47
2022-11-29T16:35:21.039Z,101132.03
2022-11-29T16:38:23.834Z,101130.34
2022-11-29T16:41:38.035Z,101136.31
2022-11-29T16:44:40.451Z,101141.44
2022-11-29T16:48:01.545Z,101137.16
2022-11-29T16:51:09.758Z,101132.91
2022-11-29T16:54:19.645Z,101146.56
2022-11-29T16:57:22.588Z,101150.81
2022-11-29T17:00:31.601Z,101151.66
2022-11-29T17:03:34.535Z,101148.22
2022-11-29T17:06:38.183Z,101161.06
2022-11-29T17:09:41.101Z,101156.81
2022-11-29T17:12:48.201Z,101154.19
2022-11-29T17:15:50.944Z,101165.31
2022-11-29T17:18:53.874Z,101161.91
2022-11-29T17:21:56.517Z,101165.31
2022-11-29T17:24:59.201Z,101176.47
2022-11-29T17:28:01.757Z,101180.75
2022-11-29T17:31:18.664Z,101174.75
2022-11-29T17:34:21.333Z,101173.91
2022-11-29T17:37:24.085Z,101173.03
2022-11-29T17:40:27.486Z,101170.50
2022-11-29T17:43:30.277Z,101173.06
2022-11-29T17:46:35.374Z,101176.47
2022-11-29T17:49:38.149Z,101181.59
2022-11-29T17:52:41.231Z,101179.87
2022-11-29T17:55:43.958Z,101177.31
2022-11-29T17:58:46.439Z,101169.63
2022-11-29T18:01:49.430Z,101175.63
2022-11-29T18:04:52.283Z,101178.19
2022-11-29T18:08:00.413Z,101177.34
2022-11-29T18:11:07.372Z,101181.59
2022-11-29T18:14:11.457Z,101169.63
2022-11-29T18:17:14.263Z,101173.06
2022-11-29T18:20:16.802Z,101172.19
2022-11-29T18:23:19.542Z,101170.47
2022-11-29T18:26:24.469Z,101176.47
2022-11-29T18:29:28.686Z,101173.03
2022-11-29T18:32:33.251Z,101175.59
2022-11-29T18:35:36.027Z,101181.59
2022-11-29T18:38:39.951Z,101179.87
2022-11-29T18:41:45.157Z,101188.41
2022-11-29T18:44:47.818Z,101180.75
2022-11-29T18:47:50.772Z,101186.72
2022-11-29T18:50:53.254Z,101191.00
2022-11-29T18:53:56.899Z,101189.28
2022-11-29T18:56:59.625Z,101181.59
2022-11-29T19:00:03.494Z,101184.12
2022-11-29T19:03:06.285Z,101192.66
2022-11-29T19:06:14.921Z,101189.25
2022-11-29T19:09:21.360Z,101187.56
2022-11-29T19:12:24.447Z,101183.28
2022-11-29T19:15:26.879Z,101190.13
2022-11-29T19:18:30.047Z,101186.72
2022-11-29T19:21:34.475Z,101199.53
2022-11-29T19:24:37.647Z,101185.87
2022-11-29T19:27:40.749Z,101195.25
2022-11-29T19:30:43.776Z,101185.87
2022-11-29T19:33:47.057Z,101195.25
2022-11-29T19:36:49.800Z,101196.13
2022-11-29T19:39:52.608Z,101193.56
2022-11-29T19:42:55.362Z,101192.66
2022-11-29T19:45:57.867Z,101188.41
2022-11-29T19:49:01.618Z,101197.81
2022-11-29T19:52:04.989Z,101197.81
2022-11-29T19:55:08.145Z,101189.28
2022-11-29T19:58:10.704Z,101190.97
2022-11-29T20:01:25.263Z,101191.00
2022-11-29T20:04:28.174Z,101189.25
2022-11-29T20:07:30.693Z,101190.97
2022-11-29T20:10:34.428Z,101190.97
2022-11-29T20:13:38.362Z,101181.56
2022-11-29T20:16:41.971Z,101179.03
2022-11-29T20:19:44.789Z,101185.84
2022-11-29T20:22:47.878Z,101191.00
2022-11-29T20:25:51.467Z,101179.00
2022-11-29T20:28:54.300Z,101181.59
2022-11-29T20:31:56.890Z,101181.59
2022-11-29T20:35:02.442Z,101186.72
2022-11-29T20:38:41.334Z,101177.31
2022-11-29T20:41:53.134Z,101179.84
2022-11-29T20:44:57.349Z,101177.28
2022-11-29T20:48:15.307Z,101182.41
2022-11-29T20:51:17.985Z,101179.00
2022-11-29T20:54:20.808Z,101178.97
2022-11-29T20:57:23.520Z,101176.44
2022-11-29T21:00:26.462Z,101177.31
2022-11-29T21:03:29.879Z,101172.16
2022-11-29T21:06:37.281Z,101172.16
2022-11-29T21:09:39.726Z,101167.91
2022-11-29T21:12:45.564Z,101174.72
2022-11-29T21:15:48.840Z,101179.00
2022-11-29T21:18:54.190Z,101174.72
2022-11-29T21:22:27.453Z,101178.16
2022-11-29T21:25:51.638Z,101173.03
2022-11-29T21:29:07.429Z,101185.84
2022-11-29T21:32:22.094Z,101183.28
2022-11-29T21:35:24.594Z,101185.00
2022-11-29T21:38:29.089Z,101186.72
2022-11-29T21:41:31.735Z,101175.59
2022-11-29T21:44:34.527Z,101185.00
2022-11-29T21:47:36.982Z,101182.41
2022-11-29T21:50:39.793Z,101188.41
2022-11-29T21:53:45.246Z,101187.53
2022-11-29T21:56:48.049Z,101177.28
2022-11-29T21:59:50.610Z,101186.69
2022-11-29T22:02:53.454Z,101188.41
2022-11-29T22:06:01.831Z,101185.84
2022-11-29T22:09:04.942Z,101179.87
2022-11-29T22:12:31.846Z,101178.19
2022-11-29T22:15:31.886Z,101184.16
2022-11-29T22:18:35.553Z,101178.16
2022-11-29T22:21:43.097Z,101182.41
2022-11-29T22:24:46.181Z,101179.00
2022-11-29T22:27:49.139Z,101183.25
2022-11-29T22:30:51.822Z,101185.84
2022-11-29T22:33:55.129Z,101173.03
2022-11-29T22:36:57.941Z,101179.87
2022-11-29T22:40:00.573Z,101178.16
2022-11-29T22:43:03.302Z,101175.59
2022-11-29T22:46:23.472Z,101172.19
2022-11-29T22:49:26.323Z,101164.50
2022-11-29T22:52:28.862Z,101167.03
2022-11-29T22:55:31.846Z,101171.34
2022-11-29T22:58:34.874Z,101167.06
2022-11-29T23:01:40.056Z,101167.06
2022-11-29T23:04:44.098Z,101167.09
2022-11-29T23:07:47.371Z,101156.81
2022-11-29T23:10:57.266Z,101152.53
2022-11-29T23:14:00.062Z,101159.37
2022-11-29T23:17:02.513Z,101153.41
2022-11-29T23:20:06.165Z,101151.69
2022-11-29T23:23:09.567Z,101148.28
2022-11-29T23:26:38.816Z,101141.44
2022-11-29T23:29:41.294Z,101151.69
2022-11-29T23:32:43.997Z,101153.38
2022-11-29T23:35:46.583Z,101147.41
2022-11-29T23:38:49.499Z,101138.87
2022-11-29T23:41:51.979Z,101138.87
2022-11-29T23:44:54.720Z,101133.75
2022-11-29T23:47:57.759Z,101149.13
2022-11-29T23:51:01.716Z,101147.44
2022-11-29T23:54:04.366Z,101149.13
2022-11-29T23:57:07.441Z,101150.84
